カンゲルルススアーク の空港の天気 - METARとTAF

カンゲルルススアーク空港 ( BGSF / SFJ ) - グリーンランド カンゲルルススアーク
飛行場実況気象(Metar)
観測時間05/28 08:50 WGST (05/28 10:50 UTC)
風向・風速西南西 6m/s
視程-
天気現象
少しの雲 雲底高度 460m
全天の8割程度の雲 雲底高度 610m
全天を覆う雲 雲底高度 850m
気温1℃
湿度80%
気圧1016hPa
METARBGSF 281050Z AUTO 25012KT 9999NDV FEW015/// BKN020/// OVC028/// 01/M02 Q1016
過去の天気等 Google飛行場航空写真 Wunderground天気予報

過去48時間のMETAR

飛行場予報(TAF)
発表時間: 5/27 09:04 WGST (5/27 11:04 UTC)
予報対象時間: 27日10時 WGST ~ 27日17時 WGST
風向・風速不定 4m/s
視程10km以上
全天の4割程度の雲 雲底高度 3660m
27日13時 WGST ~ 27日17時 WGST に一時的に
全天の8割程度の雲 雲底高度 910m
TAF BGSF 271104Z 2712/2719 VRB08KT 9999 SCT120
TEMPO 2715/2719 BKN030